sensor_id;sensor_type;location;lat;lon;timestamp;temperature;humidity
11188;DHT22;5650;52.700;7.306;2023-03-14T00:00:25;11.50;99.90
11188;DHT22;5650;52.700;7.306;2023-03-14T00:02:55;11.50;99.90
11188;DHT22;5650;52.700;7.306;2023-03-14T00:05:23;11.50;99.90
11188;DHT22;5650;52.700;7.306;2023-03-14T00:07:50;11.60;99.90
11188;DHT22;5650;52.700;7.306;2023-03-14T00:10:17;11.60;99.90
11188;DHT22;5650;52.700;7.306;2023-03-14T00:12:44;11.60;99.90
11188;DHT22;5650;52.700;7.306;2023-03-14T00:15:12;11.60;99.90
11188;DHT22;5650;52.700;7.306;2023-03-14T00:17:43;11.70;99.90
11188;DHT22;5650;52.700;7.306;2023-03-14T00:20:11;11.70;99.90
11188;DHT22;5650;52.700;7.306;2023-03-14T00:22:39;11.70;99.90
11188;DHT22;5650;52.700;7.306;2023-03-14T00:25:08;11.70;99.90
11188;DHT22;5650;52.700;7.306;2023-03-14T00:27:36;11.70;99.90
11188;DHT22;5650;52.700;7.306;2023-03-14T00:30:04;11.70;99.90
11188;DHT22;5650;52.700;7.306;2023-03-14T00:32:33;11.70;99.90
11188;DHT22;5650;52.700;7.306;2023-03-14T00:35:05;11.70;99.90
11188;DHT22;5650;52.700;7.306;2023-03-14T00:37:33;11.80;99.90
11188;DHT22;5650;52.700;7.306;2023-03-14T00:40:05;11.80;99.90
11188;DHT22;5650;52.700;7.306;2023-03-14T00:42:33;11.80;99.90
11188;DHT22;5650;52.700;7.306;2023-03-14T00:45:01;11.80;99.90
11188;DHT22;5650;52.700;7.306;2023-03-14T00:47:29;11.80;99.90
11188;DHT22;5650;52.700;7.306;2023-03-14T00:49:56;11.80;99.90
11188;DHT22;5650;52.700;7.306;2023-03-14T00:52:25;11.80;99.90
11188;DHT22;5650;52.700;7.306;2023-03-14T00:54:52;11.80;99.90
11188;DHT22;5650;52.700;7.306;2023-03-14T00:57:28;11.80;99.90
11188;DHT22;5650;52.700;7.306;2023-03-14T00:59:58;11.80;99.90
11188;DHT22;5650;52.700;7.306;2023-03-14T01:02:31;11.80;99.90
11188;DHT22;5650;52.700;7.306;2023-03-14T01:05:08;11.80;99.90
11188;DHT22;5650;52.700;7.306;2023-03-14T01:07:44;11.80;99.90
11188;DHT22;5650;52.700;7.306;2023-03-14T01:10:17;11.80;99.90
11188;DHT22;5650;52.700;7.306;2023-03-14T01:12:45;11.80;99.90
11188;DHT22;5650;52.700;7.306;2023-03-14T01:15:12;11.80;99.90
11188;DHT22;5650;52.700;7.306;2023-03-14T01:17:39;11.80;99.90
11188;DHT22;5650;52.700;7.306;2023-03-14T01:20:14;11.80;99.90
11188;DHT22;5650;52.700;7.306;2023-03-14T01:22:44;11.80;99.90
11188;DHT22;5650;52.700;7.306;2023-03-14T01:25:13;11.80;99.90
11188;DHT22;5650;52.700;7.306;2023-03-14T01:27:41;11.80;99.90
11188;DHT22;5650;52.700;7.306;2023-03-14T01:30:12;11.80;99.90
11188;DHT22;5650;52.700;7.306;2023-03-14T01:32:39;11.80;99.90
11188;DHT22;5650;52.700;7.306;2023-03-14T01:35:07;11.70;99.90
11188;DHT22;5650;52.700;7.306;2023-03-14T01:37:35;11.80;99.90
11188;DHT22;5650;52.700;7.306;2023-03-14T01:40:04;11.80;99.90
11188;DHT22;5650;52.700;7.306;2023-03-14T01:42:32;11.80;99.90
11188;DHT22;5650;52.700;7.306;2023-03-14T01:45:00;11.80;99.90
11188;DHT22;5650;52.700;7.306;2023-03-14T01:47:31;11.80;99.90
11188;DHT22;5650;52.700;7.306;2023-03-14T01:50:03;11.80;99.90
11188;DHT22;5650;52.700;7.306;2023-03-14T01:52:33;11.80;99.90
11188;DHT22;5650;52.700;7.306;2023-03-14T01:55:19;11.80;99.90
11188;DHT22;5650;52.700;7.306;2023-03-14T01:57:52;11.80;99.90
11188;DHT22;5650;52.700;7.306;2023-03-14T02:00:22;11.80;99.90
11188;DHT22;5650;52.700;7.306;2023-03-14T02:02:53;11.80;99.90
11188;DHT22;5650;52.700;7.306;2023-03-14T02:05:23;11.90;99.90
11188;DHT22;5650;52.700;7.306;2023-03-14T02:07:53;11.80;99.90
11188;DHT22;5650;52.700;7.306;2023-03-14T02:10:24;11.80;99.90
11188;DHT22;5650;52.700;7.306;2023-03-14T02:12:52;11.70;99.90
11188;DHT22;5650;52.700;7.306;2023-03-14T02:15:20;11.70;99.90
11188;DHT22;5650;52.700;7.306;2023-03-14T02:17:47;11.60;99.90
11188;DHT22;5650;52.700;7.306;2023-03-14T02:20:27;11.50;99.90
11188;DHT22;5650;52.700;7.306;2023-03-14T02:22:58;11.40;99.90
11188;DHT22;5650;52.700;7.306;2023-03-14T02:25:36;11.40;99.90
11188;DHT22;5650;52.700;7.306;2023-03-14T02:28:11;11.30;99.90
11188;DHT22;5650;52.700;7.306;2023-03-14T02:30:39;11.20;99.90
11188;DHT22;5650;52.700;7.306;2023-03-14T02:33:08;11.20;99.90
11188;DHT22;5650;52.700;7.306;2023-03-14T02:35:39;11.10;99.90
11188;DHT22;5650;52.700;7.306;2023-03-14T02:38:11;11.10;99.90
11188;DHT22;5650;52.700;7.306;2023-03-14T02:40:42;11.10;99.90
11188;DHT22;5650;52.700;7.306;2023-03-14T02:43:11;11.10;99.90
11188;DHT22;5650;52.700;7.306;2023-03-14T02:45:42;11.10;99.90
11188;DHT22;5650;52.700;7.306;2023-03-14T02:48:14;11.10;99.90
11188;DHT22;5650;52.700;7.306;2023-03-14T02:50:43;11.00;99.90
11188;DHT22;5650;52.700;7.306;2023-03-14T02:53:13;11.00;99.90
11188;DHT22;5650;52.700;7.306;2023-03-14T02:55:45;11.00;99.90
11188;DHT22;5650;52.700;7.306;2023-03-14T02:58:14;11.00;99.90
11188;DHT22;5650;52.700;7.306;2023-03-14T03:00:41;11.00;99.90
11188;DHT22;5650;52.700;7.306;2023-03-14T03:03:08;10.90;99.90
11188;DHT22;5650;52.700;7.306;2023-03-14T03:05:36;10.90;99.90
11188;DHT22;5650;52.700;7.306;2023-03-14T03:08:03;10.90;99.90
11188;DHT22;5650;52.700;7.306;2023-03-14T03:10:31;10.90;99.90
11188;DHT22;5650;52.700;7.306;2023-03-14T03:12:58;10.80;99.90
11188;DHT22;5650;52.700;7.306;2023-03-14T03:15:30;10.80;99.90
11188;DHT22;5650;52.700;7.306;2023-03-14T03:17:57;10.80;99.90
11188;DHT22;5650;52.700;7.306;2023-03-14T03:20:27;10.80;99.90
11188;DHT22;5650;52.700;7.306;2023-03-14T03:22:54;10.80;99.90
11188;DHT22;5650;52.700;7.306;2023-03-14T03:25:21;10.80;99.90
11188;DHT22;5650;52.700;7.306;2023-03-14T03:27:48;10.70;99.90
11188;DHT22;5650;52.700;7.306;2023-03-14T03:30:16;10.70;99.90
11188;DHT22;5650;52.700;7.306;2023-03-14T03:32:47;10.70;99.90
11188;DHT22;5650;52.700;7.306;2023-03-14T03:35:15;10.60;99.90
11188;DHT22;5650;52.700;7.306;2023-03-14T03:37:48;10.60;99.90
11188;DHT22;5650;52.700;7.306;2023-03-14T03:40:21;10.60;99.90
11188;DHT22;5650;52.700;7.306;2023-03-14T03:42:49;10.60;99.90
11188;DHT22;5650;52.700;7.306;2023-03-14T03:45:16;10.60;99.90
11188;DHT22;5650;52.700;7.306;2023-03-14T03:47:48;10.50;99.90
11188;DHT22;5650;52.700;7.306;2023-03-14T03:50:15;10.50;99.90
11188;DHT22;5650;52.700;7.306;2023-03-14T03:52:42;10.50;99.90
11188;DHT22;5650;52.700;7.306;2023-03-14T03:55:10;10.50;99.90
11188;DHT22;5650;52.700;7.306;2023-03-14T03:57:37;10.50;99.90
11188;DHT22;5650;52.700;7.306;2023-03-14T04:00:05;10.40;99.90
11188;DHT22;5650;52.700;7.306;2023-03-14T04:02:40;10.40;99.90
11188;DHT22;5650;52.700;7.306;2023-03-14T04:05:15;10.40;99.90
11188;DHT22;5650;52.700;7.306;2023-03-14T04:07:42;10.40;99.90
11188;DHT22;5650;52.700;7.306;2023-03-14T04:10:12;10.40;99.90
11188;DHT22;5650;52.700;7.306;2023-03-14T04:12:42;10.40;99.90
11188;DHT22;5650;52.700;7.306;2023-03-14T04:15:10;10.40;99.90
11188;DHT22;5650;52.700;7.306;2023-03-14T04:17:37;10.40;99.90
11188;DHT22;5650;52.700;7.306;2023-03-14T04:20:05;10.40;99.90
11188;DHT22;5650;52.700;7.306;2023-03-14T04:22:37;10.40;99.90
11188;DHT22;5650;52.700;7.306;2023-03-14T04:25:06;10.40;99.90
11188;DHT22;5650;52.700;7.306;2023-03-14T04:27:33;10.40;99.90
11188;DHT22;5650;52.700;7.306;2023-03-14T04:30:00;10.40;99.90
11188;DHT22;5650;52.700;7.306;2023-03-14T04:32:28;10.40;99.90
11188;DHT22;5650;52.700;7.306;2023-03-14T04:34:55;10.40;99.90
11188;DHT22;5650;52.700;7.306;2023-03-14T04:37:25;10.30;99.90
11188;DHT22;5650;52.700;7.306;2023-03-14T04:39:54;10.30;99.90
11188;DHT22;5650;52.700;7.306;2023-03-14T04:42:21;10.30;99.90
11188;DHT22;5650;52.700;7.306;2023-03-14T04:44:51;10.30;99.90
11188;DHT22;5650;52.700;7.306;2023-03-14T04:47:22;10.30;99.90
11188;DHT22;5650;52.700;7.306;2023-03-14T04:49:52;10.30;99.90
11188;DHT22;5650;52.700;7.306;2023-03-14T04:52:19;10.30;99.90
11188;DHT22;5650;52.700;7.306;2023-03-14T04:54:50;10.30;99.90
11188;DHT22;5650;52.700;7.306;2023-03-14T04:57:33;10.30;99.90
11188;DHT22;5650;52.700;7.306;2023-03-14T05:00:07;10.30;99.90
11188;DHT22;5650;52.700;7.306;2023-03-14T05:02:35;10.30;99.90
11188;DHT22;5650;52.700;7.306;2023-03-14T05:05:03;10.30;99.90
11188;DHT22;5650;52.700;7.306;2023-03-14T05:07:33;10.20;99.90
11188;DHT22;5650;52.700;7.306;2023-03-14T05:10:00;10.20;99.90
11188;DHT22;5650;52.700;7.306;2023-03-14T05:12:28;10.20;99.90
11188;DHT22;5650;52.700;7.306;2023-03-14T05:14:56;10.20;99.90
11188;DHT22;5650;52.700;7.306;2023-03-14T05:17:30;10.20;99.90
11188;DHT22;5650;52.700;7.306;2023-03-14T05:20:02;10.20;99.90
11188;DHT22;5650;52.700;7.306;2023-03-14T05:22:33;10.20;99.90
11188;DHT22;5650;52.700;7.306;2023-03-14T05:25:03;10.20;99.90
11188;DHT22;5650;52.700;7.306;2023-03-14T05:27:30;10.20;99.90
11188;DHT22;5650;52.700;7.306;2023-03-14T05:29:59;10.20;99.90
11188;DHT22;5650;52.700;7.306;2023-03-14T05:32:29;10.20;99.90
11188;DHT22;5650;52.700;7.306;2023-03-14T05:34:56;10.20;99.90
11188;DHT22;5650;52.700;7.306;2023-03-14T05:37:28;10.20;99.90
11188;DHT22;5650;52.700;7.306;2023-03-14T05:39:55;10.20;99.90
11188;DHT22;5650;52.700;7.306;2023-03-14T05:42:23;10.20;99.90
11188;DHT22;5650;52.700;7.306;2023-03-14T05:44:50;10.20;99.90
11188;DHT22;5650;52.700;7.306;2023-03-14T05:47:18;10.20;99.90
11188;DHT22;5650;52.700;7.306;2023-03-14T05:49:45;10.20;99.90
11188;DHT22;5650;52.700;7.306;2023-03-14T05:52:17;10.10;99.90
11188;DHT22;5650;52.700;7.306;2023-03-14T05:54:44;10.10;99.90
11188;DHT22;5650;52.700;7.306;2023-03-14T05:57:14;10.10;99.90
11188;DHT22;5650;52.700;7.306;2023-03-14T05:59:42;10.10;99.90
11188;DHT22;5650;52.700;7.306;2023-03-14T06:02:09;10.10;99.90
11188;DHT22;5650;52.700;7.306;2023-03-14T06:04:38;10.10;99.90
11188;DHT22;5650;52.700;7.306;2023-03-14T06:07:08;10.10;99.90
11188;DHT22;5650;52.700;7.306;2023-03-14T06:09:36;10.10;99.90
11188;DHT22;5650;52.700;7.306;2023-03-14T06:12:04;10.10;99.90
11188;DHT22;5650;52.700;7.306;2023-03-14T06:14:31;10.00;99.90
11188;DHT22;5650;52.700;7.306;2023-03-14T06:17:01;10.10;99.90
11188;DHT22;5650;52.700;7.306;2023-03-14T06:19:28;10.10;99.90
11188;DHT22;5650;52.700;7.306;2023-03-14T06:21:57;10.10;99.90
11188;DHT22;5650;52.700;7.306;2023-03-14T06:24:24;10.20;99.90
11188;DHT22;5650;52.700;7.306;2023-03-14T06:26:54;10.20;99.90
11188;DHT22;5650;52.700;7.306;2023-03-14T06:29:27;10.20;99.90
11188;DHT22;5650;52.700;7.306;2023-03-14T06:31:58;10.30;99.90
11188;DHT22;5650;52.700;7.306;2023-03-14T06:34:25;10.40;99.90
11188;DHT22;5650;52.700;7.306;2023-03-14T06:36:52;10.40;99.90
11188;DHT22;5650;52.700;7.306;2023-03-14T06:39:21;10.40;99.90
11188;DHT22;5650;52.700;7.306;2023-03-14T06:41:48;10.40;99.90
11188;DHT22;5650;52.700;7.306;2023-03-14T06:44:15;10.50;99.90
11188;DHT22;5650;52.700;7.306;2023-03-14T06:46:42;10.50;99.90
11188;DHT22;5650;52.700;7.306;2023-03-14T06:49:09;10.50;99.90
11188;DHT22;5650;52.700;7.306;2023-03-14T06:51:37;10.50;99.90
11188;DHT22;5650;52.700;7.306;2023-03-14T06:54:04;10.50;99.90
11188;DHT22;5650;52.700;7.306;2023-03-14T06:56:32;10.50;99.90
11188;DHT22;5650;52.700;7.306;2023-03-14T06:59:00;10.50;99.90
11188;DHT22;5650;52.700;7.306;2023-03-14T07:01:28;10.60;99.90
11188;DHT22;5650;52.700;7.306;2023-03-14T07:03:56;10.60;99.90
11188;DHT22;5650;52.700;7.306;2023-03-14T07:06:25;10.60;99.90
11188;DHT22;5650;52.700;7.306;2023-03-14T07:08:58;10.60;99.90
11188;DHT22;5650;52.700;7.306;2023-03-14T07:11:28;10.60;99.90
11188;DHT22;5650;52.700;7.306;2023-03-14T07:13:57;10.60;99.90
11188;DHT22;5650;52.700;7.306;2023-03-14T07:16:24;10.60;99.90
11188;DHT22;5650;52.700;7.306;2023-03-14T07:18:56;10.60;99.90
11188;DHT22;5650;52.700;7.306;2023-03-14T07:21:27;10.60;99.90
11188;DHT22;5650;52.700;7.306;2023-03-14T07:23:54;10.60;99.90
11188;DHT22;5650;52.700;7.306;2023-03-14T07:26:29;10.60;99.90
11188;DHT22;5650;52.700;7.306;2023-03-14T07:29:03;10.60;99.90
11188;DHT22;5650;52.700;7.306;2023-03-14T07:31:31;10.60;99.90
11188;DHT22;5650;52.700;7.306;2023-03-14T07:33:58;10.60;99.90
11188;DHT22;5650;52.700;7.306;2023-03-14T07:36:27;10.60;99.90
11188;DHT22;5650;52.700;7.306;2023-03-14T07:38:54;10.70;99.90
11188;DHT22;5650;52.700;7.306;2023-03-14T07:41:21;10.70;99.90
11188;DHT22;5650;52.700;7.306;2023-03-14T07:43:49;10.70;99.90
11188;DHT22;5650;52.700;7.306;2023-03-14T07:46:18;10.70;99.90
11188;DHT22;5650;52.700;7.306;2023-03-14T07:48:45;10.70;99.90
11188;DHT22;5650;52.700;7.306;2023-03-14T07:51:15;10.70;99.90
11188;DHT22;5650;52.700;7.306;2023-03-14T07:53:45;10.70;99.90
11188;DHT22;5650;52.700;7.306;2023-03-14T07:56:21;10.70;99.90
11188;DHT22;5650;52.700;7.306;2023-03-14T07:58:51;10.70;99.90
11188;DHT22;5650;52.700;7.306;2023-03-14T08:01:26;10.70;99.90
11188;DHT22;5650;52.700;7.306;2023-03-14T08:03:53;10.70;99.90
11188;DHT22;5650;52.700;7.306;2023-03-14T08:06:23;10.70;99.90
11188;DHT22;5650;52.700;7.306;2023-03-14T08:08:50;10.60;99.90
11188;DHT22;5650;52.700;7.306;2023-03-14T08:11:19;10.60;99.90
11188;DHT22;5650;52.700;7.306;2023-03-14T08:13:49;10.60;99.90
11188;DHT22;5650;52.700;7.306;2023-03-14T08:16:27;10.60;99.90
11188;DHT22;5650;52.700;7.306;2023-03-14T08:18:58;10.50;99.90
11188;DHT22;5650;52.700;7.306;2023-03-14T08:21:30;10.50;99.90
11188;DHT22;5650;52.700;7.306;2023-03-14T08:24:00;10.30;99.90
11188;DHT22;5650;52.700;7.306;2023-03-14T08:26:27;10.10;99.90
11188;DHT22;5650;52.700;7.306;2023-03-14T08:28:57;9.90;99.90
11188;DHT22;5650;52.700;7.306;2023-03-14T08:31:28;9.60;99.90
11188;DHT22;5650;52.700;7.306;2023-03-14T08:33:58;9.20;99.90
11188;DHT22;5650;52.700;7.306;2023-03-14T08:36:40;8.90;99.90
11188;DHT22;5650;52.700;7.306;2023-03-14T08:39:07;8.60;99.90
11188;DHT22;5650;52.700;7.306;2023-03-14T08:41:34;8.40;99.90
11188;DHT22;5650;52.700;7.306;2023-03-14T08:44:09;8.30;99.90
11188;DHT22;5650;52.700;7.306;2023-03-14T08:46:41;8.10;99.90
11188;DHT22;5650;52.700;7.306;2023-03-14T08:49:14;8.00;99.90
11188;DHT22;5650;52.700;7.306;2023-03-14T08:51:41;8.00;99.90
11188;DHT22;5650;52.700;7.306;2023-03-14T08:54:14;8.00;99.90
11188;DHT22;5650;52.700;7.306;2023-03-14T08:56:47;7.90;99.90
11188;DHT22;5650;52.700;7.306;2023-03-14T08:59:17;7.90;99.90
11188;DHT22;5650;52.700;7.306;2023-03-14T09:01:48;7.80;99.90
11188;DHT22;5650;52.700;7.306;2023-03-14T09:04:21;7.70;99.90
11188;DHT22;5650;52.700;7.306;2023-03-14T09:06:48;7.60;99.90
11188;DHT22;5650;52.700;7.306;2023-03-14T09:09:15;7.40;99.90
11188;DHT22;5650;52.700;7.306;2023-03-14T09:11:42;7.30;99.90
11188;DHT22;5650;52.700;7.306;2023-03-14T09:14:12;7.10;99.90
11188;DHT22;5650;52.700;7.306;2023-03-14T09:16:47;7.00;99.90
11188;DHT22;5650;52.700;7.306;2023-03-14T09:19:16;7.00;99.90
11188;DHT22;5650;52.700;7.306;2023-03-14T09:21:47;6.90;99.90
11188;DHT22;5650;52.700;7.306;2023-03-14T09:24:23;6.80;99.90
11188;DHT22;5650;52.700;7.306;2023-03-14T09:26:54;6.70;99.90
11188;DHT22;5650;52.700;7.306;2023-03-14T09:29:21;6.60;99.90
11188;DHT22;5650;52.700;7.306;2023-03-14T09:31:53;6.50;99.90
11188;DHT22;5650;52.700;7.306;2023-03-14T09:34:20;6.40;99.90
11188;DHT22;5650;52.700;7.306;2023-03-14T09:36:53;6.30;99.90
11188;DHT22;5650;52.700;7.306;2023-03-14T09:39:20;6.20;99.90
11188;DHT22;5650;52.700;7.306;2023-03-14T09:41:49;6.20;99.90
11188;DHT22;5650;52.700;7.306;2023-03-14T09:44:21;6.20;99.90
11188;DHT22;5650;52.700;7.306;2023-03-14T09:46:53;6.20;99.90
11188;DHT22;5650;52.700;7.306;2023-03-14T09:49:24;6.20;99.90
11188;DHT22;5650;52.700;7.306;2023-03-14T09:51:54;6.30;99.90
11188;DHT22;5650;52.700;7.306;2023-03-14T09:54:35;6.30;99.90
11188;DHT22;5650;52.700;7.306;2023-03-14T09:57:11;6.40;99.90
11188;DHT22;5650;52.700;7.306;2023-03-14T09:59:44;6.40;99.90
11188;DHT22;5650;52.700;7.306;2023-03-14T10:02:19;6.50;99.90
11188;DHT22;5650;52.700;7.306;2023-03-14T10:04:47;6.60;99.90
11188;DHT22;5650;52.700;7.306;2023-03-14T10:07:19;6.60;99.90
11188;DHT22;5650;52.700;7.306;2023-03-14T10:09:49;6.80;99.90
11188;DHT22;5650;52.700;7.306;2023-03-14T10:12:17;6.90;99.90
11188;DHT22;5650;52.700;7.306;2023-03-14T10:14:53;7.00;99.90
11188;DHT22;5650;52.700;7.306;2023-03-14T10:17:22;7.00;99.90
11188;DHT22;5650;52.700;7.306;2023-03-14T10:19:54;7.20;99.90
11188;DHT22;5650;52.700;7.306;2023-03-14T10:22:22;7.00;99.90
11188;DHT22;5650;52.700;7.306;2023-03-14T10:24:53;7.10;99.90
11188;DHT22;5650;52.700;7.306;2023-03-14T10:27:29;7.10;99.90
11188;DHT22;5650;52.700;7.306;2023-03-14T10:29:58;7.20;99.90
11188;DHT22;5650;52.700;7.306;2023-03-14T10:32:33;7.30;99.90
11188;DHT22;5650;52.700;7.306;2023-03-14T10:35:21;7.50;99.90
11188;DHT22;5650;52.700;7.306;2023-03-14T10:37:51;7.70;99.90
11188;DHT22;5650;52.700;7.306;2023-03-14T10:40:26;7.80;99.90
11188;DHT22;5650;52.700;7.306;2023-03-14T10:42:58;8.00;99.90
11188;DHT22;5650;52.700;7.306;2023-03-14T10:45:33;8.00;99.90
11188;DHT22;5650;52.700;7.306;2023-03-14T10:48:19;8.20;99.90
11188;DHT22;5650;52.700;7.306;2023-03-14T10:50:57;8.20;99.90
11188;DHT22;5650;52.700;7.306;2023-03-14T10:53:24;8.20;99.90
11188;DHT22;5650;52.700;7.306;2023-03-14T10:55:57;8.10;99.90
11188;DHT22;5650;52.700;7.306;2023-03-14T10:58:30;7.90;99.90
11188;DHT22;5650;52.700;7.306;2023-03-14T11:01:16;7.90;99.90
11188;DHT22;5650;52.700;7.306;2023-03-14T11:03:51;7.90;99.90
11188;DHT22;5650;52.700;7.306;2023-03-14T11:06:29;7.90;99.90
11188;DHT22;5650;52.700;7.306;2023-03-14T11:09:05;7.70;99.90
11188;DHT22;5650;52.700;7.306;2023-03-14T11:11:35;7.60;99.90
11188;DHT22;5650;52.700;7.306;2023-03-14T11:14:18;7.60;99.90
11188;DHT22;5650;52.700;7.306;2023-03-14T11:16:56;7.60;99.90
11188;DHT22;5650;52.700;7.306;2023-03-14T11:19:51;7.60;99.90
11188;DHT22;5650;52.700;7.306;2023-03-14T11:22:30;7.70;99.90
11188;DHT22;5650;52.700;7.306;2023-03-14T11:25:21;7.60;99.90
11188;DHT22;5650;52.700;7.306;2023-03-14T11:28:01;7.60;99.90
11188;DHT22;5650;52.700;7.306;2023-03-14T11:30:37;7.60;99.90
11188;DHT22;5650;52.700;7.306;2023-03-14T11:33:17;7.70;99.90
11188;DHT22;5650;52.700;7.306;2023-03-14T11:35:51;7.70;99.90
11188;DHT22;5650;52.700;7.306;2023-03-14T11:38:50;7.90;99.90
11188;DHT22;5650;52.700;7.306;2023-03-14T11:41:20;7.90;99.90
11188;DHT22;5650;52.700;7.306;2023-03-14T11:43:54;7.90;99.90
11188;DHT22;5650;52.700;7.306;2023-03-14T11:46:24;8.00;99.90
11188;DHT22;5650;52.700;7.306;2023-03-14T11:48:59;8.00;99.90
11188;DHT22;5650;52.700;7.306;2023-03-14T11:51:31;8.10;99.90
11188;DHT22;5650;52.700;7.306;2023-03-14T11:54:04;8.10;99.90
11188;DHT22;5650;52.700;7.306;2023-03-14T11:56:37;8.10;99.90
11188;DHT22;5650;52.700;7.306;2023-03-14T11:59:12;8.20;99.90
11188;DHT22;5650;52.700;7.306;2023-03-14T12:01:50;8.20;99.90
11188;DHT22;5650;52.700;7.306;2023-03-14T12:04:28;8.10;99.90
11188;DHT22;5650;52.700;7.306;2023-03-14T12:07:01;8.10;99.90
11188;DHT22;5650;52.700;7.306;2023-03-14T12:09:30;8.30;99.90
11188;DHT22;5650;52.700;7.306;2023-03-14T12:11:59;8.40;99.90
11188;DHT22;5650;52.700;7.306;2023-03-14T12:14:29;8.60;99.90
11188;DHT22;5650;52.700;7.306;2023-03-14T12:16:58;8.70;99.90
11188;DHT22;5650;52.700;7.306;2023-03-14T12:19:32;8.60;99.90
11188;DHT22;5650;52.700;7.306;2023-03-14T12:22:16;8.40;99.90
11188;DHT22;5650;52.700;7.306;2023-03-14T12:24:49;8.20;99.90
11188;DHT22;5650;52.700;7.306;2023-03-14T12:27:47;8.10;99.90
11188;DHT22;5650;52.700;7.306;2023-03-14T12:30:18;8.00;99.90
11188;DHT22;5650;52.700;7.306;2023-03-14T12:33:26;8.10;99.90
11188;DHT22;5650;52.700;7.306;2023-03-14T12:36:01;8.20;99.90
11188;DHT22;5650;52.700;7.306;2023-03-14T12:41:38;8.20;99.90
11188;DHT22;5650;52.700;7.306;2023-03-14T12:44:40;8.30;99.90
11188;DHT22;5650;52.700;7.306;2023-03-14T12:47:44;8.40;99.90
11188;DHT22;5650;52.700;7.306;2023-03-14T12:59:34;8.20;98.70
11188;DHT22;5650;52.700;7.306;2023-03-14T13:02:26;8.30;99.10
11188;DHT22;5650;52.700;7.306;2023-03-14T13:05:01;8.40;97.70
11188;DHT22;5650;52.700;7.306;2023-03-14T13:08:05;8.40;97.40
11188;DHT22;5650;52.700;7.306;2023-03-14T13:10:41;8.40;98.10
11188;DHT22;5650;52.700;7.306;2023-03-14T13:13:23;8.40;97.10
11188;DHT22;5650;52.700;7.306;2023-03-14T13:16:02;8.40;97.30
11188;DHT22;5650;52.700;7.306;2023-03-14T13:18:37;8.40;98.40
11188;DHT22;5650;52.700;7.306;2023-03-14T13:21:07;8.60;99.20
11188;DHT22;5650;52.700;7.306;2023-03-14T13:23:57;8.70;98.00
11188;DHT22;5650;52.700;7.306;2023-03-14T13:26:32;8.60;96.40
11188;DHT22;5650;52.700;7.306;2023-03-14T13:29:09;8.70;97.90
11188;DHT22;5650;52.700;7.306;2023-03-14T13:31:36;8.80;97.20
11188;DHT22;5650;52.700;7.306;2023-03-14T13:34:13;8.90;97.50
11188;DHT22;5650;52.700;7.306;2023-03-14T13:36:44;8.80;97.90
11188;DHT22;5650;52.700;7.306;2023-03-14T13:39:18;8.80;97.70
11188;DHT22;5650;52.700;7.306;2023-03-14T13:41:57;8.70;98.60
11188;DHT22;5650;52.700;7.306;2023-03-14T13:44:27;8.60;97.60
11188;DHT22;5650;52.700;7.306;2023-03-14T13:46:58;8.50;98.20
11188;DHT22;5650;52.700;7.306;2023-03-14T13:49:27;8.60;99.10
11188;DHT22;5650;52.700;7.306;2023-03-14T13:51:58;8.50;98.90
11188;DHT22;5650;52.700;7.306;2023-03-14T13:54:27;8.50;99.00
11188;DHT22;5650;52.700;7.306;2023-03-14T13:57:00;8.50;99.20
11188;DHT22;5650;52.700;7.306;2023-03-14T13:59:28;8.50;99.50
11188;DHT22;5650;52.700;7.306;2023-03-14T14:01:57;8.50;99.70
11188;DHT22;5650;52.700;7.306;2023-03-14T14:04:26;8.50;99.90
11188;DHT22;5650;52.700;7.306;2023-03-14T14:06:56;8.60;99.10
11188;DHT22;5650;52.700;7.306;2023-03-14T14:09:27;8.60;99.90
11188;DHT22;5650;52.700;7.306;2023-03-14T14:11:57;8.60;99.90
11188;DHT22;5650;52.700;7.306;2023-03-14T14:14:28;8.50;99.90
11188;DHT22;5650;52.700;7.306;2023-03-14T14:16:58;8.50;99.90
11188;DHT22;5650;52.700;7.306;2023-03-14T14:19:28;8.40;99.90
11188;DHT22;5650;52.700;7.306;2023-03-14T14:21:57;8.40;99.90
11188;DHT22;5650;52.700;7.306;2023-03-14T14:24:29;8.30;99.90
11188;DHT22;5650;52.700;7.306;2023-03-14T14:27:00;8.30;99.90
11188;DHT22;5650;52.700;7.306;2023-03-14T14:29:29;8.20;99.90
11188;DHT22;5650;52.700;7.306;2023-03-14T14:32:01;8.20;99.90
11188;DHT22;5650;52.700;7.306;2023-03-14T14:34:28;8.10;99.90
11188;DHT22;5650;52.700;7.306;2023-03-14T14:36:55;7.90;99.90
11188;DHT22;5650;52.700;7.306;2023-03-14T14:39:25;7.80;99.90
11188;DHT22;5650;52.700;7.306;2023-03-14T14:41:56;7.70;99.90
11188;DHT22;5650;52.700;7.306;2023-03-14T14:44:28;7.80;99.60
11188;DHT22;5650;52.700;7.306;2023-03-14T14:47:04;7.80;99.20
11188;DHT22;5650;52.700;7.306;2023-03-14T14:49:34;7.80;98.40
11188;DHT22;5650;52.700;7.306;2023-03-14T14:52:03;7.80;98.90
11188;DHT22;5650;52.700;7.306;2023-03-14T14:54:34;7.80;98.40
11188;DHT22;5650;52.700;7.306;2023-03-14T14:57:12;7.70;97.70
11188;DHT22;5650;52.700;7.306;2023-03-14T14:59:43;7.80;98.50
11188;DHT22;5650;52.700;7.306;2023-03-14T15:02:28;7.80;98.80
11188;DHT22;5650;52.700;7.306;2023-03-14T15:04:55;7.90;97.40
11188;DHT22;5650;52.700;7.306;2023-03-14T15:07:22;7.90;97.10
11188;DHT22;5650;52.700;7.306;2023-03-14T15:09:52;7.90;97.20
11188;DHT22;5650;52.700;7.306;2023-03-14T15:12:21;8.00;96.90
11188;DHT22;5650;52.700;7.306;2023-03-14T15:14:53;8.00;97.00
11188;DHT22;5650;52.700;7.306;2023-03-14T15:17:26;8.00;96.60
11188;DHT22;5650;52.700;7.306;2023-03-14T15:19:53;8.00;96.80
11188;DHT22;5650;52.700;7.306;2023-03-14T15:22:26;7.90;96.80
11188;DHT22;5650;52.700;7.306;2023-03-14T15:24:53;7.90;96.90
11188;DHT22;5650;52.700;7.306;2023-03-14T15:27:31;8.00;96.70
11188;DHT22;5650;52.700;7.306;2023-03-14T15:29:59;8.10;97.10
11188;DHT22;5650;52.700;7.306;2023-03-14T15:32:27;8.20;97.60
11188;DHT22;5650;52.700;7.306;2023-03-14T15:34:54;8.20;97.20
11188;DHT22;5650;52.700;7.306;2023-03-14T15:37:22;8.10;97.10
11188;DHT22;5650;52.700;7.306;2023-03-14T15:39:49;8.10;97.50
11188;DHT22;5650;52.700;7.306;2023-03-14T15:42:17;8.10;98.00
11188;DHT22;5650;52.700;7.306;2023-03-14T15:44:51;8.00;96.50
11188;DHT22;5650;52.700;7.306;2023-03-14T15:47:18;7.80;96.90
11188;DHT22;5650;52.700;7.306;2023-03-14T15:49:45;7.80;96.80
11188;DHT22;5650;52.700;7.306;2023-03-14T15:52:13;7.80;97.30
11188;DHT22;5650;52.700;7.306;2023-03-14T15:54:43;7.80;97.00
11188;DHT22;5650;52.700;7.306;2023-03-14T15:57:10;7.80;97.50
11188;DHT22;5650;52.700;7.306;2023-03-14T15:59:38;7.80;97.40
11188;DHT22;5650;52.700;7.306;2023-03-14T16:02:07;7.80;97.40
11188;DHT22;5650;52.700;7.306;2023-03-14T16:04:35;7.80;97.80
11188;DHT22;5650;52.700;7.306;2023-03-14T16:07:02;7.70;97.80
11188;DHT22;5650;52.700;7.306;2023-03-14T16:09:30;7.70;98.30
11188;DHT22;5650;52.700;7.306;2023-03-14T16:11:57;7.70;98.90
11188;DHT22;5650;52.700;7.306;2023-03-14T16:14:24;7.60;99.30
11188;DHT22;5650;52.700;7.306;2023-03-14T16:16:57;7.40;99.50
11188;DHT22;5650;52.700;7.306;2023-03-14T16:19:26;7.30;99.90
11188;DHT22;5650;52.700;7.306;2023-03-14T16:21:54;7.30;99.90
11188;DHT22;5650;52.700;7.306;2023-03-14T16:24:21;7.10;99.90
11188;DHT22;5650;52.700;7.306;2023-03-14T16:26:48;7.00;99.90
11188;DHT22;5650;52.700;7.306;2023-03-14T16:29:16;7.00;99.90